Time;durP1;ratioP1;P1;durP2;ratioP2;P2;SDS_P1;SDS_P2;PMS_P1;PMS_P2;Temp;Humidity;BMP_temperature;BMP_pressure;BME280_temperature;BME280_humidity;BME280_pressure;Samples;Min_cycle;Max_cycle;Signal;HPM_P1;HPM_P2
2024/04/24 00:00:49;0.00;0.00;0.62;0.00;0.00;0.62;2.60;2.17;;;21.90;18.10;;;;;;2044026;62;20749;-63
2024/04/24 00:03:34;0.00;0.00;0.62;0.00;0.00;0.62;3.27;2.90;;;21.90;18.20;;;;;;2044160;62;21078;-63
2024/04/24 00:06:19;0.00;0.00;0.62;0.00;0.00;0.62;5.23;3.80;;;21.90;18.20;;;;;;2048265;62;20468;-63
2024/04/24 00:09:03;0.00;0.00;0.62;0.00;0.00;0.62;3.20;2.60;;;21.90;18.20;;;;;;2048258;62;20531;-63
2024/04/24 00:11:51;0.00;0.00;0.62;0.00;0.00;0.62;2.87;2.50;;;21.90;18.20;;;;;;2048153;62;20875;-63
2024/04/24 00:14:35;0.00;0.00;0.62;0.00;0.00;0.62;4.50;3.23;;;21.90;18.20;;;;;;2048195;62;20511;-63
2024/04/24 00:17:20;0.00;0.00;0.62;0.00;0.00;0.62;3.63;2.80;;;21.90;18.20;;;;;;2047766;62;20468;-63
2024/04/24 00:20:06;0.00;0.00;0.62;0.00;0.00;0.62;3.50;2.43;;;21.90;18.20;;;;;;2048085;62;21032;-63
2024/04/24 00:22:51;0.00;0.00;0.62;0.00;0.00;0.62;3.63;3.00;;;21.90;18.20;;;;;;2047805;62;20460;-63
2024/04/24 00:25:35;0.00;0.00;0.62;0.00;0.00;0.62;3.87;3.10;;;21.90;18.20;;;;;;2048354;62;20475;-63
2024/04/24 00:28:23;0.00;0.00;0.62;0.00;0.00;0.62;4.00;2.80;;;21.90;18.30;;;;;;2048391;62;20569;-63
2024/04/24 00:31:07;0.00;0.00;0.62;0.00;0.00;0.62;2.80;2.50;;;21.90;18.30;;;;;;2047724;62;20529;-63
2024/04/24 00:33:52;0.00;0.00;0.62;0.00;0.00;0.62;3.63;3.00;;;21.90;18.30;;;;;;2048342;62;20540;-63
2024/04/24 00:36:37;0.00;0.00;0.62;0.00;0.00;0.62;4.07;3.13;;;21.90;18.30;;;;;;2048171;62;20901;-63
2024/04/24 00:39:21;0.00;0.00;0.62;0.00;0.00;0.62;3.10;2.67;;;21.90;18.30;;;;;;2047784;62;20463;-63
2024/04/24 00:42:17;0.00;0.00;0.62;0.00;0.00;0.62;3.40;2.33;;;21.90;18.30;;;;;;2047856;62;20507;-62
2024/04/24 00:45:05;0.00;0.00;0.62;0.00;0.00;0.62;3.50;2.73;;;21.90;18.30;;;;;;2046523;62;21043;-62
2024/04/24 00:47:51;0.00;0.00;0.62;0.00;0.00;0.62;3.70;3.07;;;21.90;18.40;;;;;;2046379;62;20484;-62
2024/04/24 00:50:37;0.00;0.00;0.62;0.00;0.00;0.62;3.50;2.70;;;21.90;18.40;;;;;;2046456;62;20468;-63
2024/04/24 00:53:21;0.00;0.00;0.62;0.00;0.00;0.62;4.33;3.33;;;21.90;18.40;;;;;;2046446;62;20497;-64
2024/04/24 00:56:06;0.00;0.00;0.62;0.00;0.00;0.62;3.10;2.60;;;21.90;18.40;;;;;;2042921;62;20540;-62
2024/04/24 00:58:51;0.00;0.00;0.62;0.00;0.00;0.62;4.27;3.20;;;21.80;18.30;;;;;;2046406;62;20480;-62
2024/04/24 01:01:39;0.00;0.00;0.62;0.00;0.00;0.62;3.63;3.10;;;21.90;18.40;;;;;;2046037;62;20463;-62
2024/04/24 01:04:23;0.00;0.00;0.62;0.00;0.00;0.62;3.30;2.40;;;21.80;18.40;;;;;;2046854;62;20474;-62
2024/04/24 01:07:08;0.00;0.00;0.62;0.00;0.00;0.62;3.00;2.70;;;21.80;18.40;;;;;;2046885;62;20451;-62
2024/04/24 01:09:52;0.00;0.00;0.62;0.00;0.00;0.62;3.53;2.43;;;21.80;18.40;;;;;;2047435;62;20598;-62
2024/04/24 01:12:37;0.00;0.00;0.62;0.00;0.00;0.62;3.47;2.70;;;21.80;18.40;;;;;;2046304;62;20460;-62
2024/04/24 01:15:22;0.00;0.00;0.62;0.00;0.00;0.62;3.43;2.30;;;21.80;18.40;;;;;;2046859;62;20535;-62
2024/04/24 01:18:09;0.00;0.00;0.62;0.00;0.00;0.62;3.00;2.27;;;21.80;18.40;;;;;;2047128;62;20472;-64
2024/04/24 01:20:56;0.00;0.00;0.62;0.00;0.00;0.62;3.30;2.30;;;21.80;18.40;;;;;;2046591;62;20463;-63
2024/04/24 01:23:51;0.00;0.00;0.62;0.00;0.00;0.62;2.90;2.30;;;21.80;18.40;;;;;;2046886;62;20514;-61
2024/04/24 01:26:44;0.00;0.00;0.62;0.00;0.00;0.62;3.13;2.13;;;21.80;18.50;;;;;;2046879;62;20542;-62
2024/04/24 01:29:29;0.00;0.00;0.62;0.00;0.00;0.62;2.93;2.20;;;21.80;18.50;;;;;;2046689;62;20499;-62
2024/04/24 01:32:14;0.00;0.00;0.62;0.00;0.00;0.62;2.87;2.20;;;21.80;19.00;;;;;;2045501;62;20460;-61
2024/04/24 01:34:59;0.00;0.00;0.62;0.00;0.00;0.62;2.70;2.00;;;21.80;18.50;;;;;;2047019;62;20456;-62
2024/04/24 01:37:43;0.00;0.00;0.62;0.00;0.00;0.62;2.23;1.63;;;21.80;18.50;;;;;;2046627;62;20529;-62
2024/04/24 01:40:28;0.00;0.00;0.62;0.00;0.00;0.62;2.77;1.87;;;21.80;18.50;;;;;;2046628;62;20459;-62
2024/04/24 01:43:15;0.00;0.00;0.62;0.00;0.00;0.62;3.07;2.30;;;21.80;18.50;;;;;;2046974;62;20456;-63
2024/04/24 01:46:00;0.00;0.00;0.62;0.00;0.00;0.62;2.43;1.80;;;21.80;18.50;;;;;;2046780;62;20518;-62
2024/04/24 01:48:44;0.00;0.00;0.62;0.00;0.00;0.62;3.10;1.80;;;21.80;18.50;;;;;;2046742;62;20526;-62
2024/04/24 01:51:29;0.00;0.00;0.62;0.00;0.00;0.62;2.87;1.90;;;21.80;18.50;;;;;;2044351;62;20480;-63
2024/04/24 01:54:13;0.00;0.00;0.62;0.00;0.00;0.62;3.97;1.90;;;21.80;18.50;;;;;;2047024;62;20464;-61
2024/04/24 01:56:58;0.00;0.00;0.62;0.00;0.00;0.62;3.07;1.90;;;21.70;18.50;;;;;;2046689;62;20464;-62
2024/04/24 01:59:45;0.00;0.00;0.62;0.00;0.00;0.62;2.60;1.90;;;21.80;18.50;;;;;;2043183;62;20480;-62
2024/04/24 02:02:30;0.00;0.00;0.62;0.00;0.00;0.62;2.63;1.70;;;21.70;18.50;;;;;;2046734;62;20476;-62
2024/04/24 02:05:14;0.00;0.00;0.62;0.00;0.00;0.62;2.83;1.83;;;21.70;18.50;;;;;;2046801;62;20518;-62
2024/04/24 02:07:59;0.00;0.00;0.62;0.00;0.00;0.62;2.40;1.70;;;21.70;18.50;;;;;;2044125;62;20468;-60
2024/04/24 02:10:43;0.00;0.00;0.62;0.00;0.00;0.62;2.70;2.00;;;21.70;18.50;;;;;;2046875;62;20529;-63
2024/04/24 02:13:28;0.00;0.00;0.62;0.00;0.00;0.62;2.53;1.60;;;21.70;18.50;;;;;;2046815;62;20537;-63
2024/04/24 02:16:15;0.00;0.00;0.62;0.00;0.00;0.62;2.90;2.17;;;21.70;18.50;;;;;;2046724;62;20468;-63
2024/04/24 02:19:00;0.00;0.00;0.62;0.00;0.00;0.62;2.13;1.90;;;21.70;18.50;;;;;;2046742;62;20509;-63
2024/04/24 02:21:45;0.00;0.00;0.62;0.00;0.00;0.62;2.40;1.60;;;21.70;18.50;;;;;;2044674;62;20909;-62
2024/04/24 02:27:33;0.00;0.00;0.62;0.00;0.00;0.62;2.97;2.00;;;21.70;18.50;;;;;;2046833;62;20517;-62
2024/04/24 02:30:18;0.00;0.00;0.62;0.00;0.00;0.62;1.90;1.40;;;21.70;18.60;;;;;;2046605;62;21053;-62
2024/04/24 02:33:05;0.00;0.00;0.62;0.00;0.00;0.62;2.13;1.67;;;21.70;18.60;;;;;;2046827;62;21059;-64
2024/04/24 02:35:50;0.00;0.00;0.62;0.00;0.00;0.62;2.10;1.70;;;21.70;18.60;;;;;;2046776;62;20503;-61
2024/04/24 02:38:34;0.00;0.00;0.62;0.00;0.00;0.62;3.27;1.67;;;21.70;18.60;;;;;;2046830;62;20526;-63
2024/04/24 02:41:19;0.00;0.00;0.62;0.00;0.00;0.62;2.27;1.47;;;21.70;18.60;;;;;;2042446;62;20479;-63
2024/04/24 02:44:04;0.00;0.00;0.62;0.00;0.00;0.62;2.50;1.40;;;21.70;18.60;;;;;;2046634;62;20856;-63
2024/04/24 02:46:48;0.00;0.00;0.62;0.00;0.00;0.62;1.80;1.30;;;21.70;18.60;;;;;;2042813;62;20472;-62
2024/04/24 02:49:36;0.00;0.00;0.62;0.00;0.00;0.62;2.67;1.40;;;21.60;18.50;;;;;;2046693;62;20488;-61
2024/04/24 02:52:20;0.00;0.00;0.62;0.00;0.00;0.62;2.10;1.23;;;21.70;18.60;;;;;;2046547;62;20884;-62
2024/04/24 02:55:05;0.00;0.00;0.62;0.00;0.00;0.62;2.03;1.23;;;21.70;18.60;;;;;;2046919;62;20872;-62
2024/04/24 02:57:50;0.00;0.00;0.62;0.00;0.00;0.62;2.17;1.33;;;21.70;18.60;;;;;;2046896;62;20526;-63
2024/04/24 03:00:35;0.00;0.00;0.62;0.00;0.00;0.62;2.43;1.60;;;21.60;18.60;;;;;;2046606;62;20529;-63
2024/04/24 03:03:19;0.00;0.00;0.62;0.00;0.00;0.62;1.70;1.20;;;21.60;18.60;;;;;;2042674;62;20507;-62
2024/04/24 03:06:06;0.00;0.00;0.62;0.00;0.00;0.62;2.13;1.50;;;21.60;18.60;;;;;;2046738;62;20514;-62
2024/04/24 03:08:51;0.00;0.00;0.62;0.00;0.00;0.62;1.50;1.00;;;21.60;18.60;;;;;;2043502;62;20542;-62
2024/04/24 03:11:38;0.00;0.00;0.62;0.00;0.00;0.62;2.77;1.47;;;21.60;18.60;;;;;;2046581;62;20518;-62
2024/04/24 03:14:22;0.00;0.00;0.62;0.00;0.00;0.62;2.87;1.57;;;21.60;18.60;;;;;;2046082;62;20515;-63
2024/04/24 03:17:07;0.00;0.00;0.62;0.00;0.00;0.62;2.20;1.50;;;21.60;18.60;;;;;;2046715;62;20971;-61
2024/04/24 03:19:52;0.00;0.00;0.62;0.00;0.00;0.62;2.60;1.50;;;21.60;18.60;;;;;;2046883;62;20469;-62
2024/04/24 03:22:39;0.00;0.00;0.62;0.00;0.00;0.62;2.30;1.50;;;21.60;18.60;;;;;;2046780;62;20513;-63
2024/04/24 03:25:24;0.00;0.00;0.62;0.00;0.00;0.62;2.17;1.60;;;21.60;18.60;;;;;;2046592;62;20657;-62
2024/04/24 03:28:09;0.00;0.00;0.62;0.00;0.00;0.62;2.13;1.60;;;21.60;18.60;;;;;;2046526;62;20472;-62
2024/04/24 03:30:54;0.00;0.00;0.62;0.00;0.00;0.62;2.60;1.50;;;21.60;18.60;;;;;;2042589;62;20861;-62
2024/04/24 03:33:38;0.00;0.00;0.62;0.00;0.00;0.62;2.67;1.30;;;21.60;18.60;;;;;;2046720;62;20460;-62
2024/04/24 03:36:23;0.00;0.00;0.62;0.00;0.00;0.62;2.17;1.30;;;21.60;18.60;;;;;;2046656;62;20472;-62
2024/04/24 03:39:10;0.00;0.00;0.62;0.00;0.00;0.62;4.13;2.33;;;21.60;18.60;;;;;;2046700;62;20533;-65
2024/04/24 03:41:54;0.00;0.00;0.62;0.00;0.00;0.62;3.17;1.70;;;21.60;18.60;;;;;;2046328;62;20472;-62
2024/04/24 03:44:39;0.00;0.00;0.62;0.00;0.00;0.62;4.10;1.37;;;21.60;18.60;;;;;;2035409;62;20482;-64
2024/04/24 03:47:25;0.00;0.00;0.62;0.00;0.00;0.62;2.50;1.60;;;21.60;18.60;;;;;;2046631;62;20998;-62
2024/04/24 03:50:10;0.00;0.00;0.62;0.00;0.00;0.62;2.33;1.53;;;21.60;18.60;;;;;;2042316;62;20460;-64
2024/04/24 03:52:55;0.00;0.00;0.62;0.00;0.00;0.62;1.93;1.20;;;21.60;18.60;;;;;;2044862;62;20479;-62
2024/04/24 03:55:42;0.00;0.00;0.62;0.00;0.00;0.62;3.00;1.30;;;21.60;19.20;;;;;;2046658;62;21024;-61
2024/04/24 03:58:27;0.00;0.00;0.62;0.00;0.00;0.62;3.13;1.63;;;21.60;18.60;;;;;;2046656;62;20538;-64
2024/04/24 04:01:11;0.00;0.00;0.62;0.00;0.00;0.62;3.07;1.70;;;21.60;18.60;;;;;;2046268;62;20459;-64
2024/04/24 04:03:56;0.00;0.00;0.62;0.00;0.00;0.62;2.07;1.30;;;21.60;18.60;;;;;;2046761;62;21006;-64
2024/04/24 04:06:41;0.00;0.00;0.62;0.00;0.00;0.62;3.10;1.43;;;21.60;18.70;;;;;;2046578;62;20464;-63
2024/04/24 04:09:25;0.00;0.00;0.62;0.00;0.00;0.62;2.60;1.10;;;21.50;18.60;;;;;;2046709;62;20511;-64
2024/04/24 04:12:12;0.00;0.00;0.62;0.00;0.00;0.62;2.40;1.40;;;21.50;18.60;;;;;;2046610;62;20765;-64
2024/04/24 04:14:57;0.00;0.00;0.62;0.00;0.00;0.62;2.90;1.17;;;21.50;18.60;;;;;;2046759;62;20549;-64
2024/04/24 04:17:42;0.00;0.00;0.62;0.00;0.00;0.62;1.60;1.10;;;21.50;19.20;;;;;;2046644;62;20526;-64
2024/04/24 04:20:28;0.00;0.00;0.62;0.00;0.00;0.62;2.37;1.40;;;21.50;18.60;;;;;;2046367;62;20537;-64
2024/04/24 04:23:14;0.00;0.00;0.62;0.00;0.00;0.62;2.00;1.10;;;21.50;18.60;;;;;;2046613;62;20558;-64
2024/04/24 04:25:59;0.00;0.00;0.62;0.00;0.00;0.62;2.40;1.40;;;21.50;18.60;;;;;;2046679;62;20873;-64
2024/04/24 04:28:46;0.00;0.00;0.62;0.00;0.00;0.62;2.10;1.40;;;21.50;18.60;;;;;;2046544;62;20484;-64
2024/04/24 04:31:31;0.00;0.00;0.62;0.00;0.00;0.62;2.83;1.57;;;21.50;18.60;;;;;;2046500;62;20526;-64
2024/04/24 04:34:16;0.00;0.00;0.62;0.00;0.00;0.62;3.03;1.40;;;21.50;18.60;;;;;;2046528;62;20448;-64
2024/04/24 04:37:00;0.00;0.00;0.62;0.00;0.00;0.62;2.47;1.60;;;21.50;18.60;;;;;;2046712;62;21001;-64
2024/04/24 04:39:45;0.00;0.00;0.62;0.00;0.00;0.62;2.10;1.00;;;21.50;18.60;;;;;;2046942;62;20476;-64
2024/04/24 04:42:30;0.00;0.00;0.62;0.00;0.00;0.62;2.10;1.23;;;21.50;18.60;;;;;;2046739;62;20468;-64
2024/04/24 04:45:17;0.00;0.00;0.62;0.00;0.00;0.62;2.10;1.30;;;21.50;18.60;;;;;;2047129;62;20542;-64
2024/04/24 04:48:04;0.00;0.00;0.62;0.00;0.00;0.62;2.37;1.37;;;21.50;18.70;;;;;;2047258;62;20546;-65
2024/04/24 04:50:49;0.00;0.00;0.62;0.00;0.00;0.62;2.83;1.80;;;21.50;18.70;;;;;;2046903;54;20464;-64
2024/04/24 04:53:34;0.00;0.00;0.62;0.00;0.00;0.62;2.70;1.67;;;21.50;18.70;;;;;;2047137;62;20563;-64
2024/04/24 04:56:18;0.00;0.00;0.62;0.00;0.00;0.62;2.60;1.50;;;21.50;18.70;;;;;;2046897;62;20464;-65
2024/04/24 04:59:03;0.00;0.00;0.62;0.00;0.00;0.62;3.20;1.50;;;21.50;18.70;;;;;;2046955;62;20940;-64
2024/04/24 05:01:50;0.00;0.00;0.62;0.00;0.00;0.62;4.53;2.27;;;21.50;18.70;;;;;;2046187;62;20994;-64
2024/04/24 05:04:35;0.00;0.00;0.62;0.00;0.00;0.62;3.00;2.27;;;21.40;18.60;;;;;;2046916;62;20522;-64
2024/04/24 05:07:20;0.00;0.00;0.62;0.00;0.00;0.62;4.23;1.90;;;21.50;18.70;;;;;;2047068;62;20857;-64
2024/04/24 05:10:06;0.00;0.00;0.62;0.00;0.00;0.62;3.40;2.33;;;21.50;19.30;;;;;;2045161;62;20872;-64
2024/04/24 05:12:50;0.00;0.00;0.62;0.00;0.00;0.62;2.97;1.97;;;21.50;18.80;;;;;;2046853;62;21026;-64
2024/04/24 05:15:35;0.00;0.00;0.62;0.00;0.00;0.62;3.47;2.37;;;21.40;18.60;;;;;;2047003;62;20449;-64
2024/04/24 05:18:23;0.00;0.00;0.62;0.00;0.00;0.62;4.47;2.90;;;21.40;18.70;;;;;;2047232;62;20562;-65
2024/04/24 05:21:08;0.00;0.00;0.62;0.00;0.00;0.62;4.80;2.73;;;21.40;18.70;;;;;;2046680;62;20529;-64
2024/04/24 05:23:53;0.00;0.00;0.62;0.00;0.00;0.62;5.60;3.47;;;21.40;18.70;;;;;;2046909;62;20953;-64
2024/04/24 05:29:41;0.00;0.00;0.62;0.00;0.00;0.62;4.30;3.13;;;21.40;18.70;;;;;;2046789;62;20468;-64
2024/04/24 05:32:26;0.00;0.00;0.62;0.00;0.00;0.62;5.10;3.37;;;21.40;18.70;;;;;;2046740;62;21071;-64
2024/04/24 05:35:13;0.00;0.00;0.62;0.00;0.00;0.62;6.13;4.10;;;21.40;18.70;;;;;;2046874;62;21009;-64
2024/04/24 05:37:58;0.00;0.00;0.62;0.00;0.00;0.62;5.23;4.10;;;21.40;18.70;;;;;;2046259;62;20509;-63
2024/04/24 05:40:43;0.00;0.00;0.62;0.00;0.00;0.62;6.00;3.67;;;21.40;18.70;;;;;;2046523;62;20531;-64
2024/04/24 05:43:27;0.00;0.00;0.62;0.00;0.00;0.62;6.17;4.10;;;21.40;18.70;;;;;;2047003;62;20464;-62
2024/04/24 05:46:12;0.00;0.00;0.62;0.00;0.00;0.62;7.10;4.77;;;21.40;18.70;;;;;;2046919;62;20518;-64
2024/04/24 05:48:56;0.00;0.00;0.62;0.00;0.00;0.62;7.97;5.37;;;21.40;18.70;;;;;;2046603;62;20495;-64
2024/04/24 05:51:43;0.00;0.00;0.62;0.00;0.00;0.62;10.53;5.97;;;21.40;18.70;;;;;;2046798;62;20518;-64
2024/04/24 05:54:28;0.00;0.00;0.62;0.00;0.00;0.62;9.10;5.60;;;21.40;18.70;;;;;;2047019;62;20505;-64
2024/04/24 05:57:13;0.00;0.00;0.62;0.00;0.00;0.62;7.93;5.60;;;21.40;18.70;;;;;;2046880;62;20525;-64
2024/04/24 05:59:58;0.00;0.00;0.62;0.00;0.00;0.62;8.00;5.40;;;21.40;18.80;;;;;;2044795;62;20460;-64
2024/04/24 06:02:43;0.00;0.00;0.62;0.00;0.00;0.62;10.17;6.77;;;21.40;18.80;;;;;;2046531;62;20473;-64
2024/04/24 06:05:27;0.00;0.00;0.62;0.00;0.00;0.62;10.37;7.30;;;21.40;18.80;;;;;;2046981;62;20568;-64
2024/04/24 06:08:14;0.00;0.00;0.62;0.00;0.00;0.62;8.83;6.63;;;21.40;18.80;;;;;;2046808;62;20947;-64
2024/04/24 06:10:59;0.00;0.00;0.62;0.00;0.00;0.62;11.27;8.13;;;21.40;18.80;;;;;;2046855;62;21050;-64
2024/04/24 06:13:43;0.00;0.00;0.62;0.00;0.00;0.62;10.30;7.90;;;21.40;18.80;;;;;;2046938;62;20530;-64
2024/04/24 06:16:28;0.00;0.00;0.62;0.00;0.00;0.62;11.00;8.20;;;21.40;18.80;;;;;;2046921;62;20514;-64
2024/04/24 06:19:13;0.00;0.00;0.62;0.00;0.00;0.62;11.93;8.40;;;21.40;18.80;;;;;;2046912;62;20538;-64
2024/04/24 06:21:58;0.00;0.00;0.62;0.00;0.00;0.62;13.17;8.63;;;21.40;18.80;;;;;;2046771;62;20472;-64
2024/04/24 06:24:45;0.00;0.00;0.62;0.00;0.00;0.62;11.30;8.63;;;21.40;18.80;;;;;;2046827;62;20456;-64
2024/04/24 06:27:30;0.00;0.00;0.62;0.00;0.00;0.62;12.30;8.97;;;21.40;18.80;;;;;;2046862;62;21053;-64
2024/04/24 06:30:15;0.00;0.00;0.62;0.00;0.00;0.62;12.03;9.43;;;21.40;18.80;;;;;;2046653;62;20506;-65
2024/04/24 06:33:02;0.00;0.00;0.62;0.00;0.00;0.62;13.03;8.20;;;21.40;18.90;;;;;;2046961;62;20496;-64
2024/04/24 06:35:47;0.00;0.00;0.62;0.00;0.00;0.62;9.67;7.67;;;21.40;18.90;;;;;;2046922;62;20518;-64
2024/04/24 06:38:32;0.00;0.00;0.62;0.00;0.00;0.62;9.93;7.93;;;21.40;18.90;;;;;;2045926;62;20476;-65
2024/04/24 06:41:19;0.00;0.00;0.62;0.00;0.00;0.62;12.53;9.77;;;21.40;18.90;;;;;;2046476;62;20460;-64
2024/04/24 06:44:04;0.00;0.00;0.62;0.00;0.00;0.62;11.33;9.13;;;21.40;18.90;;;;;;2046982;62;20464;-65
2024/04/24 06:46:49;0.00;0.00;0.62;0.00;0.00;0.62;10.33;8.77;;;21.40;18.90;;;;;;2046868;62;20453;-64
2024/04/24 06:49:36;0.00;0.00;0.62;0.00;0.00;0.62;10.87;8.80;;;21.40;18.90;;;;;;2046297;62;20485;-65
2024/04/24 06:52:21;0.00;0.00;0.62;0.00;0.00;0.62;13.10;7.90;;;21.40;18.90;;;;;;2046756;62;20464;-64
2024/04/24 06:55:06;0.00;0.00;0.62;0.00;0.00;0.62;10.87;7.87;;;21.40;18.90;;;;;;2046786;62;20551;-64
2024/04/24 06:57:54;0.00;0.00;0.62;0.00;0.00;0.62;10.27;7.10;;;21.40;18.90;;;;;;2046825;62;20468;-64
2024/04/24 07:00:38;0.00;0.00;0.62;0.00;0.00;0.62;10.90;7.60;;;21.40;18.90;;;;;;2046467;62;21001;-64
2024/04/24 07:03:24;0.00;0.00;0.62;0.00;0.00;0.62;10.43;6.80;;;21.40;18.90;;;;;;2042051;62;20499;-64
2024/04/24 07:06:08;0.00;0.00;0.62;0.00;0.00;0.62;8.60;6.30;;;21.40;18.90;;;;;;2046934;62;20913;-64
2024/04/24 07:08:53;0.00;0.00;0.62;0.00;0.00;0.62;8.17;6.37;;;21.40;18.90;;;;;;2046646;62;20546;-64
2024/04/24 07:11:38;0.00;0.00;0.62;0.00;0.00;0.62;10.03;5.30;;;21.40;18.90;;;;;;2046666;62;20490;-64
2024/04/24 07:14:25;0.00;0.00;0.62;0.00;0.00;0.62;10.17;6.17;;;21.40;18.90;;;;;;2046704;62;20464;-64
2024/04/24 07:17:12;0.00;0.00;0.62;0.00;0.00;0.62;6.03;5.13;;;21.40;18.90;;;;;;2046691;62;20534;-64
2024/04/24 07:19:56;0.00;0.00;0.62;0.00;0.00;0.62;8.37;6.50;;;21.40;18.90;;;;;;2046666;62;20538;-64
2024/04/24 07:22:41;0.00;0.00;0.62;0.00;0.00;0.62;7.47;5.37;;;21.40;18.90;;;;;;2046562;62;20538;-64
2024/04/24 07:25:25;0.00;0.00;0.62;0.00;0.00;0.62;8.57;5.73;;;21.40;18.90;;;;;;2046588;62;20475;-64
2024/04/24 07:28:10;0.00;0.00;0.62;0.00;0.00;0.62;7.60;5.33;;;21.40;18.90;;;;;;2046924;62;20471;-64
2024/04/24 07:30:57;0.00;0.00;0.62;0.00;0.00;0.62;7.23;5.20;;;21.40;18.90;;;;;;2046654;62;20519;-63
2024/04/24 07:33:42;0.00;0.00;0.62;0.00;0.00;0.62;7.70;5.30;;;21.40;18.90;;;;;;2046822;62;20518;-63
2024/04/24 07:36:27;0.00;0.00;0.62;0.00;0.00;0.62;8.20;4.60;;;21.40;18.90;;;;;;2046855;62;20579;-64
2024/04/24 07:39:11;0.00;0.00;0.62;0.00;0.00;0.62;6.70;5.00;;;21.40;18.90;;;;;;2046103;62;20480;-65
2024/04/24 07:41:56;0.00;0.00;0.62;0.00;0.00;0.62;8.03;4.80;;;21.40;18.90;;;;;;2046576;62;21001;-63
2024/04/24 07:44:43;0.00;0.00;0.62;0.00;0.00;0.62;5.87;4.43;;;21.40;18.90;;;;;;2046950;62;20461;-64
2024/04/24 07:47:30;0.00;0.00;0.62;0.00;0.00;0.62;5.53;3.70;;;21.40;18.90;;;;;;2046726;62;20521;-64
2024/04/24 07:50:15;0.00;0.00;0.62;0.00;0.00;0.62;7.43;4.00;;;21.40;18.90;;;;;;2046650;62;20464;-65
2024/04/24 07:53:01;0.00;0.00;0.62;0.00;0.00;0.62;5.90;4.00;;;21.40;18.90;;;;;;2046874;62;20530;-65
2024/04/24 07:55:46;0.00;0.00;0.62;0.00;0.00;0.62;5.53;3.40;;;21.40;18.90;;;;;;2046745;62;20549;-65
2024/04/24 07:58:33;0.00;0.00;0.62;0.00;0.00;0.62;4.07;2.93;;;21.40;18.80;;;;;;2046731;62;20513;-64
2024/04/24 08:01:21;0.00;0.00;0.62;0.00;0.00;0.62;5.13;2.97;;;21.40;18.80;;;;;;2045967;62;20471;-65
2024/04/24 08:04:09;0.00;0.00;0.62;0.00;0.00;0.62;5.10;3.47;;;21.40;18.80;;;;;;2046845;62;21060;-64
2024/04/24 08:06:53;0.00;0.00;0.62;0.00;0.00;0.62;5.80;3.10;;;21.40;18.80;;;;;;2046695;62;20464;-64
2024/04/24 08:09:38;0.00;0.00;0.62;0.00;0.00;0.62;3.70;2.60;;;21.40;18.80;;;;;;2046535;62;20535;-64
2024/04/24 08:12:23;0.00;0.00;0.62;0.00;0.00;0.62;4.57;3.03;;;21.40;18.80;;;;;;2046416;62;20456;-63
2024/04/24 08:15:08;0.00;0.00;0.62;0.00;0.00;0.62;4.43;3.07;;;21.40;18.80;;;;;;2046729;62;20480;-64
2024/04/24 08:17:53;0.00;0.00;0.62;0.00;0.00;0.62;4.10;2.83;;;21.40;18.80;;;;;;2046650;62;20481;-64
2024/04/24 08:20:40;0.00;0.00;0.62;0.00;0.00;0.62;4.83;3.30;;;21.40;18.80;;;;;;2046845;62;21059;-64
2024/04/24 08:23:25;0.00;0.00;0.62;0.00;0.00;0.62;4.80;2.60;;;21.40;18.80;;;;;;2046780;62;20463;-64
2024/04/24 08:26:10;0.00;0.00;0.62;0.00;0.00;0.62;4.40;2.87;;;21.40;18.80;;;;;;2046779;62;20947;-64
2024/04/24 08:28:54;0.00;0.00;0.62;0.00;0.00;0.62;3.77;2.60;;;21.30;18.80;;;;;;2046498;62;20475;-64
2024/04/24 08:31:39;0.00;0.00;0.62;0.00;0.00;0.62;3.67;2.40;;;21.40;18.80;;;;;;2046346;62;20464;-64
2024/04/24 08:34:24;0.00;0.00;0.62;0.00;0.00;0.62;3.60;2.50;;;21.30;18.80;;;;;;2046677;62;20863;-65
2024/04/24 08:37:11;0.00;0.00;0.62;0.00;0.00;0.62;4.07;3.00;;;21.30;18.80;;;;;;2046615;62;20451;-64
2024/04/24 08:39:56;0.00;0.00;0.62;0.00;0.00;0.62;5.50;2.40;;;21.30;18.80;;;;;;2046750;62;20523;-64
2024/04/24 08:42:40;0.00;0.00;0.62;0.00;0.00;0.62;5.10;2.80;;;21.30;18.80;;;;;;2046565;62;20463;-64
2024/04/24 08:45:26;0.00;0.00;0.62;0.00;0.00;0.62;4.37;2.53;;;21.30;18.80;;;;;;2046694;62;20522;-64
2024/04/24 08:48:11;0.00;0.00;0.62;0.00;0.00;0.62;5.00;3.33;;;21.30;18.80;;;;;;2046582;62;20906;-64
2024/04/24 08:51:00;0.00;0.00;0.62;0.00;0.00;0.62;4.70;2.37;;;21.30;18.80;;;;;;2046944;62;20452;-64
2024/04/24 08:53:58;0.00;0.00;0.62;0.00;0.00;0.62;5.00;2.47;;;21.30;18.80;;;;;;2046523;62;20478;-64
2024/04/24 08:56:46;0.00;0.00;0.62;0.00;0.00;0.62;3.43;2.40;;;21.30;18.80;;;;;;2046651;62;20471;-64
2024/04/24 08:59:36;0.00;0.00;0.62;0.00;0.00;0.62;4.60;2.40;;;21.30;18.80;;;;;;2046481;62;20522;-64
2024/04/24 09:02:26;0.00;0.00;0.62;0.00;0.00;0.62;3.10;1.97;;;21.30;18.90;;;;;;2045591;62;20464;-65
2024/04/24 09:05:13;0.00;0.00;0.62;0.00;0.00;0.62;3.60;2.30;;;21.30;18.80;;;;;;2046575;62;20464;-64
2024/04/24 09:07:58;0.00;0.00;0.62;0.00;0.00;0.62;4.87;2.00;;;21.30;18.80;;;;;;2046439;62;20464;-65
2024/04/24 09:10:45;0.00;0.00;0.62;0.00;0.00;0.62;4.63;2.87;;;21.30;18.90;;;;;;2046414;62;20457;-64
2024/04/24 09:13:31;0.00;0.00;0.62;0.00;0.00;0.62;2.63;1.60;;;21.30;18.90;;;;;;2046479;62;20542;-64
2024/04/24 09:16:20;0.00;0.00;0.62;0.00;0.00;0.62;2.93;2.17;;;21.30;18.90;;;;;;2046378;62;20509;-64
2024/04/24 09:19:05;0.00;0.00;0.62;0.00;0.00;0.62;4.40;2.00;;;21.30;18.90;;;;;;2046558;62;20530;-65
2024/04/24 09:21:50;0.00;0.00;0.62;0.00;0.00;0.62;3.03;2.20;;;21.40;18.90;;;;;;2042355;62;20536;-64
2024/04/24 09:24:36;0.00;0.00;0.62;0.00;0.00;0.62;3.57;2.27;;;21.40;19.00;;;;;;2046521;62;20530;-64
2024/04/24 09:27:24;0.00;0.00;0.62;0.00;0.00;0.62;3.70;2.10;;;21.30;19.40;;;;;;2047117;62;20929;-64
2024/04/24 09:30:11;0.00;0.00;0.62;0.00;0.00;0.62;2.90;1.87;;;21.40;18.90;;;;;;2046863;62;20480;-64
2024/04/24 09:32:57;0.00;0.00;0.62;0.00;0.00;0.62;3.03;2.00;;;21.40;19.00;;;;;;2047062;62;20998;-64
2024/04/24 09:35:42;0.00;0.00;0.62;0.00;0.00;0.62;3.43;1.80;;;21.40;18.90;;;;;;2042921;62;20529;-64
2024/04/24 09:38:26;0.00;0.00;0.62;0.00;0.00;0.62;2.97;1.90;;;21.40;19.00;;;;;;2046796;62;20476;-62
2024/04/24 09:41:11;0.00;0.00;0.62;0.00;0.00;0.62;2.93;2.03;;;21.40;18.90;;;;;;2046748;62;20468;-64
2024/04/24 09:43:58;0.00;0.00;0.62;0.00;0.00;0.62;4.13;2.17;;;21.40;18.90;;;;;;2046996;62;20464;-64
2024/04/24 09:46:47;0.00;0.00;0.62;0.00;0.00;0.62;3.20;1.80;;;21.40;19.00;;;;;;2046736;62;20464;-64
2024/04/24 09:49:36;0.00;0.00;0.62;0.00;0.00;0.62;3.00;1.60;;;21.40;18.90;;;;;;2046995;62;20488;-64
2024/04/24 09:52:20;0.00;0.00;0.62;0.00;0.00;0.62;3.93;1.67;;;21.40;19.40;;;;;;2046756;62;20512;-64
2024/04/24 09:55:05;0.00;0.00;0.62;0.00;0.00;0.62;2.50;1.33;;;21.40;18.90;;;;;;2046994;62;21031;-64
2024/04/24 09:57:53;0.00;0.00;0.62;0.00;0.00;0.62;2.80;1.60;;;21.40;18.90;;;;;;2046911;62;20464;-64
2024/04/24 10:00:40;0.00;0.00;0.62;0.00;0.00;0.62;3.50;2.30;;;21.40;18.90;;;;;;2051863;62;20558;-68
2024/04/24 10:03:28;0.00;0.00;0.62;0.00;0.00;0.62;3.13;1.33;;;21.40;18.90;;;;;;2052079;62;20466;-67
2024/04/24 10:06:20;0.00;0.00;0.62;0.00;0.00;0.62;2.87;2.07;;;21.40;18.90;;;;;;2052019;62;20467;-68
2024/04/24 10:09:05;0.00;0.00;0.62;0.00;0.00;0.62;3.77;1.93;;;21.40;18.90;;;;;;2050593;62;20502;-65
2024/04/24 10:11:57;0.00;0.00;0.62;0.00;0.00;0.62;3.60;1.73;;;21.40;18.90;;;;;;2046887;62;20457;-67
2024/04/24 10:14:52;0.00;0.00;0.62;0.00;0.00;0.62;3.57;1.93;;;21.40;18.90;;;;;;2046495;62;20468;-65
2024/04/24 10:17:42;0.00;0.00;0.62;0.00;0.00;0.62;2.77;1.73;;;21.40;18.90;;;;;;2046869;62;20459;-66
2024/04/24 10:20:27;0.00;0.00;0.62;0.00;0.00;0.62;3.20;1.80;;;21.40;18.90;;;;;;2046761;62;21020;-66
2024/04/24 10:23:13;0.00;0.00;0.62;0.00;0.00;0.62;2.80;1.70;;;21.40;18.90;;;;;;2046484;62;20900;-65
2024/04/24 10:25:59;0.00;0.00;0.62;0.00;0.00;0.62;2.20;1.50;;;21.40;19.00;;;;;;2042687;62;20557;-68
2024/04/24 10:28:45;0.00;0.00;0.62;0.00;0.00;0.62;2.80;2.00;;;21.40;19.00;;;;;;2046736;62;20472;-66
2024/04/24 10:31:30;0.00;0.00;0.62;0.00;0.00;0.62;4.17;1.90;;;21.40;19.00;;;;;;2046503;62;20460;-67
2024/04/24 10:34:18;0.00;0.00;0.62;0.00;0.00;0.62;2.57;1.83;;;21.40;19.50;;;;;;2047083;62;20936;-67
2024/04/24 10:37:03;0.00;0.00;0.62;0.00;0.00;0.62;3.70;2.33;;;21.40;19.00;;;;;;2042362;62;20492;-66
2024/04/24 10:39:50;0.00;0.00;0.62;0.00;0.00;0.62;2.77;1.93;;;21.40;19.00;;;;;;2046810;62;20907;-68
2024/04/24 10:42:35;0.00;0.00;0.62;0.00;0.00;0.62;2.97;2.40;;;21.40;19.00;;;;;;2046821;62;20464;-66
2024/04/24 10:45:22;0.00;0.00;0.62;0.00;0.00;0.62;2.80;1.60;;;21.50;19.10;;;;;;2042412;62;20489;-67
2024/04/24 10:48:10;0.00;0.00;0.62;0.00;0.00;0.62;3.13;2.00;;;21.40;19.00;;;;;;2042564;62;20473;-67
2024/04/24 10:50:58;0.00;0.00;0.62;0.00;0.00;0.62;2.60;2.00;;;21.40;19.00;;;;;;2046264;62;20534;-66
2024/04/24 10:53:47;0.00;0.00;0.62;0.00;0.00;0.62;2.40;1.60;;;21.50;19.10;;;;;;2046433;62;20530;-67
2024/04/24 10:56:32;0.00;0.00;0.62;0.00;0.00;0.62;3.00;1.83;;;21.50;19.10;;;;;;2046904;62;20493;-67
2024/04/24 10:59:16;0.00;0.00;0.62;0.00;0.00;0.62;3.87;2.10;;;21.50;19.10;;;;;;2046136;62;20472;-67